Time;durP1;ratioP1;P1;durP2;ratioP2;P2;SDS_P1;SDS_P2;PMS_P1;PMS_P2;Temp;Humidity;BMP_temperature;BMP_pressure;BME280_temperature;BME280_humidity;BME280_pressure;Samples;Min_cycle;Max_cycle;Signal;HPM_P1;HPM_P2
2022/12/26 00:00:10;;;;;;;;;;;9.20;99.90;9.70;99902.00;;;;336115;28;82601;-93
2022/12/26 00:00:23;;;;;;;;;;;9.20;99.90;9.70;99892.00;;;;334842;29;89476;-93
2022/12/26 00:00:35;;;;;;;;;;;9.20;99.90;9.70;99903.00;;;;336540;28;83308;-93
2022/12/26 00:00:50;;;;;;;;;;;9.20;99.90;9.60;99907.00;;;;336460;28;87914;-92
2022/12/26 00:01:07;;;;;;;;;;;9.20;99.90;9.50;99901.00;;;;335264;29;82533;-93
2022/12/26 00:01:21;;;;;;;;;;;9.20;99.90;9.50;99913.00;;;;333845;29;88804;-93
2022/12/26 00:01:35;;;;;;;;;;;9.10;99.90;9.40;99908.00;;;;335143;29;83539;-93
2022/12/26 00:01:48;;;;;;;;;;;9.10;99.90;9.30;99912.00;;;;335104;29;89420;-93
2022/12/26 00:02:00;;;;;;;;;;;9.10;99.90;9.40;99902.00;;;;336783;28;82586;-93
2022/12/26 00:02:12;;;;;;;;;;;9.10;99.90;9.40;99909.00;;;;334934;29;89858;-93
2022/12/26 00:02:24;;;;;;;;;;;9.10;99.90;9.40;99918.00;;;;336542;28;83936;-92
2022/12/26 00:02:36;;;;;;;;;;;9.10;99.90;9.40;99912.00;;;;336066;28;92120;-93
2022/12/26 00:02:48;;;;;;;;;;;9.10;99.90;9.50;99914.00;;;;335208;28;82560;-93
2022/12/26 00:03:00;;;;;;;;;;;9.00;99.90;9.70;99910.00;;;;336469;28;87177;-92
2022/12/26 00:03:12;;;;;;;;;;;9.10;99.90;9.70;99910.00;;;;335406;29;83376;-92
2022/12/26 00:03:24;;;;;;;;;;;9.10;99.90;9.70;99906.00;;;;333383;29;91040;-93
2022/12/26 00:03:36;;;;;;;;;;;9.10;99.90;9.70;99916.00;;;;336737;28;83444;-92
2022/12/26 00:03:49;;;;;;;;;;;9.10;99.90;9.60;99914.00;;;;336157;28;90612;-93
2022/12/26 00:04:01;;;;;;;;;;;9.10;99.90;9.60;99910.00;;;;336590;28;83758;-91
2022/12/26 00:04:13;;;;;;;;;;;9.10;99.90;9.60;99921.00;;;;340118;28;91558;-93
2022/12/26 00:04:45;;;;;;;;;;;9.10;99.90;9.60;99910.00;;;;338050;28;83425;-91
2022/12/26 00:05:03;;;;;;;;;;;9.10;99.90;9.60;99923.00;;;;337419;28;88193;-92
2022/12/26 00:05:15;;;;;;;;;;;9.10;99.90;9.70;99913.00;;;;338020;28;82507;-93
2022/12/26 00:05:27;;;;;;;;;;;9.10;99.90;9.50;99915.00;;;;341169;28;88917;-92
2022/12/26 00:05:38;;;;;;;;;;;9.10;99.90;9.50;99913.00;;;;341923;28;82469;-92
2022/12/26 00:05:50;;;;;;;;;;;9.10;99.90;9.50;99917.00;;;;340139;28;89072;-93
2022/12/26 00:06:02;;;;;;;;;;;9.10;99.90;9.40;99914.00;;;;340147;28;82351;-92
2022/12/26 00:06:18;;;;;;;;;;;9.10;99.90;9.50;99920.00;;;;340063;28;88419;-92
2022/12/26 00:06:30;;;;;;;;;;;9.10;99.90;9.50;99915.00;;;;342186;28;83422;-92
2022/12/26 00:06:42;;;;;;;;;;;9.10;99.90;9.50;99915.00;;;;340137;28;89036;-92
2022/12/26 00:06:53;;;;;;;;;;;9.10;99.90;9.70;99917.00;;;;343088;28;83349;-92
2022/12/26 00:07:05;;;;;;;;;;;9.10;99.90;9.70;99915.00;;;;341564;28;90402;-92
2022/12/26 00:07:17;;;;;;;;;;;9.10;99.90;9.80;99920.00;;;;340444;28;83598;-92
2022/12/26 00:07:29;;;;;;;;;;;9.10;99.90;9.80;99914.00;;;;338909;28;89030;-92
2022/12/26 00:07:41;;;;;;;;;;;9.10;99.90;9.80;99908.00;;;;341772;28;83643;-92
2022/12/26 00:07:53;;;;;;;;;;;9.20;99.90;9.60;99912.00;;;;343100;28;89384;-92
2022/12/26 00:08:06;;;;;;;;;;;9.10;99.90;9.60;99915.00;;;;341694;28;82551;-91
2022/12/26 00:08:18;;;;;;;;;;;9.20;99.90;9.60;99909.00;;;;341709;28;88325;-92
2022/12/26 00:08:30;;;;;;;;;;;9.10;99.90;9.60;99910.00;;;;342068;28;82484;-92
2022/12/26 00:08:42;;;;;;;;;;;9.10;99.90;9.50;99917.00;;;;342891;28;91672;-92
2022/12/26 00:08:54;;;;;;;;;;;9.10;99.90;9.50;99914.00;;;;342083;28;83087;-91
2022/12/26 00:09:06;;;;;;;;;;;9.10;99.90;9.40;99910.00;;;;339853;28;88302;-92
2022/12/26 00:09:17;;;;;;;;;;;9.10;99.90;9.40;99898.00;;;;340880;28;82244;-91
2022/12/26 00:09:31;;;;;;;;;;;9.10;99.90;9.40;99906.00;;;;341794;28;87692;-92
2022/12/26 00:09:43;;;;;;;;;;;9.10;99.90;9.60;99907.00;;;;340791;28;83394;-91
2022/12/26 00:09:55;;;;;;;;;;;9.10;99.90;9.60;99917.00;;;;340068;28;90171;-92
2022/12/26 00:10:07;;;;;;;;;;;9.10;99.90;9.70;99902.00;;;;341771;28;83810;-92
2022/12/26 00:10:19;;;;;;;;;;;9.10;99.90;9.70;99908.00;;;;339972;28;92013;-92
2022/12/26 00:10:30;;;;;;;;;;;9.10;99.90;9.70;99912.00;;;;340514;28;83528;-92
2022/12/26 00:10:42;;;;;;;;;;;9.10;99.90;9.60;99920.00;;;;341422;28;90258;-91
2022/12/26 00:10:54;;;;;;;;;;;9.10;99.90;9.50;99908.00;;;;339402;28;82528;-92
2022/12/26 00:11:06;;;;;;;;;;;9.10;99.90;9.50;99907.00;;;;341378;28;92101;-91
2022/12/26 00:11:18;;;;;;;;;;;9.10;99.90;9.50;99921.00;;;;341877;28;83483;-92
2022/12/26 00:11:30;;;;;;;;;;;9.10;99.90;9.50;99913.00;;;;339968;28;90053;-92
2022/12/26 00:11:42;;;;;;;;;;;9.10;99.90;9.60;99903.00;;;;340836;28;83227;-92
2022/12/26 00:11:56;;;;;;;;;;;9.10;99.90;9.50;99914.00;;;;340274;28;88703;-92
2022/12/26 00:12:08;;;;;;;;;;;9.10;99.90;9.40;99912.00;;;;340763;28;82229;-93
2022/12/26 00:12:19;;;;;;;;;;;9.10;99.90;9.50;99919.00;;;;341760;28;86970;-93
2022/12/26 00:12:31;;;;;;;;;;;9.10;99.90;9.50;99912.00;;;;342181;28;83258;-92
2022/12/26 00:12:43;;;;;;;;;;;9.10;99.90;9.40;99914.00;;;;340051;28;90723;-91
2022/12/26 00:12:55;;;;;;;;;;;9.10;99.90;9.40;99918.00;;;;342004;28;82566;-91
2022/12/26 00:13:27;;;;;;;;;;;9.10;99.90;9.40;99914.00;;;;340228;28;91809;-91
2022/12/26 00:13:55;;;;;;;;;;;9.10;99.90;9.50;99924.00;;;;341729;28;83580;-91
2022/12/26 00:14:12;;;;;;;;;;;9.10;99.90;9.60;99917.00;;;;340268;28;87008;-92
2022/12/26 00:14:24;;;;;;;;;;;9.10;99.90;9.50;99917.00;;;;341811;28;82532;-92
2022/12/26 00:14:36;;;;;;;;;;;9.00;99.90;9.40;99916.00;;;;339868;28;89922;-91
2022/12/26 00:14:48;;;;;;;;;;;9.00;99.90;9.40;99917.00;;;;340609;28;82601;-91
2022/12/26 00:14:59;;;;;;;;;;;9.00;99.90;9.40;99920.00;;;;342714;28;86594;-92
2022/12/26 00:15:11;;;;;;;;;;;9.00;99.90;9.40;99919.00;;;;341977;28;83767;-91
2022/12/26 00:15:23;;;;;;;;;;;9.00;99.90;9.40;99920.00;;;;338683;28;91667;-93
2022/12/26 00:15:38;;;;;;;;;;;9.00;99.90;9.40;99918.00;;;;340732;28;83396;-93
2022/12/26 00:15:50;;;;;;;;;;;9.00;99.90;9.40;99919.00;;;;341168;28;91865;-92
2022/12/26 00:16:10;;;;;;;;;;;9.00;99.90;9.40;99918.00;;;;341709;28;83279;-92
2022/12/26 00:16:22;;;;;;;;;;;9.00;99.90;9.40;99916.00;;;;341654;28;89044;-93
2022/12/26 00:16:35;;;;;;;;;;;9.00;99.90;9.40;99924.00;;;;343538;28;83282;-92
2022/12/26 00:16:46;;;;;;;;;;;9.00;99.90;9.50;99919.00;;;;342950;28;90851;-91
2022/12/26 00:16:58;;;;;;;;;;;9.00;99.90;9.50;99920.00;;;;341683;28;82418;-92
2022/12/26 00:17:10;;;;;;;;;;;9.00;99.90;9.40;99913.00;;;;340167;28;88046;-92
2022/12/26 00:17:22;;;;;;;;;;;9.00;99.90;9.30;99914.00;;;;340427;28;83274;-93
2022/12/26 00:17:34;;;;;;;;;;;9.00;99.90;9.30;99914.00;;;;341582;28;90607;-93
2022/12/26 00:17:45;;;;;;;;;;;9.00;99.90;9.30;99919.00;;;;343513;28;83337;-92
2022/12/26 00:17:57;;;;;;;;;;;9.00;99.90;9.40;99907.00;;;;340212;28;92497;-92
2022/12/26 00:18:09;;;;;;;;;;;9.00;99.90;9.40;99912.00;;;;340684;28;83466;-92
2022/12/26 00:18:21;;;;;;;;;;;9.00;99.90;9.40;99916.00;;;;342537;28;90589;-92
2022/12/26 00:18:32;;;;;;;;;;;9.00;99.90;9.40;99912.00;;;;342098;28;82397;-91
2022/12/26 00:18:44;;;;;;;;;;;9.00;99.90;9.40;99906.00;;;;341447;28;90238;-92
2022/12/26 00:18:56;;;;;;;;;;;9.00;99.90;9.40;99906.00;;;;340534;28;83507;-92
2022/12/26 00:19:08;;;;;;;;;;;9.00;99.90;9.50;99910.00;;;;340051;28;91987;-92
2022/12/26 00:19:20;;;;;;;;;;;9.00;99.90;9.50;99918.00;;;;341960;28;83388;-92
2022/12/26 00:19:31;;;;;;;;;;;9.00;99.90;9.40;99908.00;;;;341734;28;89036;-92
2022/12/26 00:19:44;;;;;;;;;;;9.00;99.90;9.50;99913.00;;;;341604;28;83567;-93
2022/12/26 00:19:55;;;;;;;;;;;9.00;99.90;9.40;99908.00;;;;341273;28;91465;-91
2022/12/26 00:20:08;;;;;;;;;;;9.00;99.90;9.40;99911.00;;;;342088;28;82513;-92
2022/12/26 00:20:20;;;;;;;;;;;9.00;99.90;9.30;99913.00;;;;341365;28;90913;-92
2022/12/26 00:20:31;;;;;;;;;;;9.00;99.90;9.30;99905.00;;;;343132;28;83444;-92
2022/12/26 00:20:43;;;;;;;;;;;9.00;99.90;9.30;99901.00;;;;338630;28;88958;-92
2022/12/26 00:20:55;;;;;;;;;;;9.00;99.90;9.40;99900.00;;;;340550;28;82537;-92
2022/12/26 00:21:07;;;;;;;;;;;9.00;99.90;9.50;99909.00;;;;341383;28;91410;-93
2022/12/26 00:21:19;;;;;;;;;;;9.00;99.90;9.50;99897.00;;;;341437;28;83470;-92
2022/12/26 00:21:31;;;;;;;;;;;9.00;99.90;9.60;99913.00;;;;341697;28;88789;-92
2022/12/26 00:21:43;;;;;;;;;;;9.00;99.90;9.60;99905.00;;;;341900;28;83385;-92
2022/12/26 00:21:56;;;;;;;;;;;9.00;99.90;9.60;99905.00;;;;340213;28;89751;-91
2022/12/26 00:22:08;;;;;;;;;;;9.00;99.90;9.50;99909.00;;;;340702;28;83250;-93
2022/12/26 00:22:20;;;;;;;;;;;9.00;99.90;9.40;99903.00;;;;341405;28;90226;-93
2022/12/26 00:22:32;;;;;;;;;;;9.00;99.90;9.30;99911.00;;;;343180;28;82567;-92
2022/12/26 00:22:44;;;;;;;;;;;9.00;99.90;9.30;99911.00;;;;342959;28;87859;-91
2022/12/26 00:22:56;;;;;;;;;;;9.00;99.90;9.40;99910.00;;;;341723;28;82685;-93
2022/12/26 00:23:08;;;;;;;;;;;9.00;99.90;9.50;99908.00;;;;341770;28;88017;-92
2022/12/26 00:23:20;;;;;;;;;;;9.00;99.90;9.50;99909.00;;;;343146;28;82395;-93
2022/12/26 00:23:32;;;;;;;;;;;9.00;99.90;9.50;99913.00;;;;339990;28;92041;-93
2022/12/26 00:23:44;;;;;;;;;;;9.00;99.90;9.40;99914.00;;;;342110;28;83361;-92
2022/12/26 00:23:57;;;;;;;;;;;9.00;99.90;9.50;99910.00;;;;339922;28;91753;-92
2022/12/26 00:24:09;;;;;;;;;;;9.00;99.90;9.60;99903.00;;;;340714;28;83503;-93
2022/12/26 00:24:21;;;;;;;;;;;9.00;99.90;9.70;99903.00;;;;342673;28;90299;-92
2022/12/26 00:24:33;;;;;;;;;;;9.00;99.90;9.70;99904.00;;;;342116;28;83740;-92
2022/12/26 00:24:46;;;;;;;;;;;9.00;99.90;9.70;99903.00;;;;339010;28;87760;-93
2022/12/26 00:24:58;;;;;;;;;;;9.00;99.90;9.60;99905.00;;;;339402;28;82563;-92
2022/12/26 00:25:09;;;;;;;;;;;9.10;99.90;9.50;99905.00;;;;341404;28;89264;-92
2022/12/26 00:25:21;;;;;;;;;;;9.10;99.90;9.50;99912.00;;;;340636;28;83497;-93
2022/12/26 00:25:33;;;;;;;;;;;9.10;99.90;9.40;99898.00;;;;340341;28;89033;-92
2022/12/26 00:25:45;;;;;;;;;;;9.10;99.90;9.40;99907.00;;;;338986;28;83369;-92
2022/12/26 00:26:10;;;;;;;;;;;9.10;99.90;9.50;99907.00;;;;340058;28;90305;-93
2022/12/26 00:26:23;;;;;;;;;;;9.10;99.90;9.40;99904.00;;;;340397;28;83458;-92
2022/12/26 00:26:35;;;;;;;;;;;9.10;99.90;9.40;99903.00;;;;341326;28;89292;-91
2022/12/26 00:26:47;;;;;;;;;;;9.00;99.90;9.30;99904.00;;;;340832;28;83336;-92
2022/12/26 00:26:59;;;;;;;;;;;9.10;99.90;9.30;99903.00;;;;341558;28;87041;-92
2022/12/26 00:27:11;;;;;;;;;;;9.00;99.90;9.30;99900.00;;;;341783;28;83569;-93
2022/12/26 00:27:22;;;;;;;;;;;9.00;99.90;9.30;99902.00;;;;340172;28;89550;-92
2022/12/26 00:27:34;;;;;;;;;;;9.10;99.90;9.30;99904.00;;;;340747;28;83550;-92
2022/12/26 00:27:46;;;;;;;;;;;9.00;99.90;9.40;99900.00;;;;341125;28;87174;-93
2022/12/26 00:27:58;;;;;;;;;;;9.00;99.90;9.40;99905.00;;;;342115;28;83242;-93
2022/12/26 00:28:10;;;;;;;;;;;9.00;99.90;9.30;99899.00;;;;341222;28;89356;-93
2022/12/26 00:28:21;;;;;;;;;;;9.00;99.90;9.40;99900.00;;;;342148;28;82388;-93
2022/12/26 00:28:33;;;;;;;;;;;9.00;99.90;9.40;99907.00;;;;339989;28;87225;-92
2022/12/26 00:28:47;;;;;;;;;;;9.00;99.90;9.30;99895.00;;;;341823;28;82564;-93
2022/12/26 00:28:59;;;;;;;;;;;9.00;99.90;9.30;99899.00;;;;344084;28;86741;-92
2022/12/26 00:29:10;;;;;;;;;;;9.00;99.90;9.30;99897.00;;;;344535;28;82483;-93
2022/12/26 00:29:22;;;;;;;;;;;9.00;99.90;9.30;99904.00;;;;342870;28;88390;-92
2022/12/26 00:29:34;;;;;;;;;;;9.00;99.90;9.40;99903.00;;;;340520;28;83530;-93
2022/12/26 00:29:46;;;;;;;;;;;9.00;99.90;9.40;99891.00;;;;340067;28;89345;-92
2022/12/26 00:29:58;;;;;;;;;;;9.00;99.90;9.40;99896.00;;;;340701;28;83226;-93
2022/12/26 00:30:10;;;;;;;;;;;9.00;99.90;9.40;99901.00;;;;341600;28;91523;-92
2022/12/26 00:30:22;;;;;;;;;;;9.00;99.90;9.40;99901.00;;;;340707;28;83190;-93
2022/12/26 00:30:36;;;;;;;;;;;9.00;99.90;9.40;99897.00;;;;341598;28;87447;-94
2022/12/26 00:30:48;;;;;;;;;;;9.00;99.90;9.40;99893.00;;;;342078;28;82277;-93
2022/12/26 00:31:11;;;;;;;;;;;9.00;99.90;9.50;99885.00;;;;340165;28;91569;-92
2022/12/26 00:31:28;;;;;;;;;;;9.00;99.90;9.50;99893.00;;;;341654;28;82567;-92
2022/12/26 00:31:40;;;;;;;;;;;9.00;99.90;9.60;99890.00;;;;340333;28;89362;-93
2022/12/26 00:31:52;;;;;;;;;;;9.00;99.90;9.60;99893.00;;;;340540;28;82533;-92
2022/12/26 00:32:04;;;;;;;;;;;9.00;99.90;9.70;99894.00;;;;340984;28;87023;-93
2022/12/26 00:32:15;;;;;;;;;;;9.00;99.90;9.70;99890.00;;;;340544;28;82506;-93
2022/12/26 00:32:27;;;;;;;;;;;9.00;99.90;9.70;99897.00;;;;340239;28;92426;-92
2022/12/26 00:32:39;;;;;;;;;;;9.00;99.90;9.70;99892.00;;;;342074;28;83276;-92
2022/12/26 00:32:51;;;;;;;;;;;9.00;99.90;9.60;99894.00;;;;340243;28;90350;-92
2022/12/26 00:33:03;;;;;;;;;;;9.00;99.90;9.50;99889.00;;;;340490;28;82609;-92
2022/12/26 00:33:14;;;;;;;;;;;9.00;99.90;9.40;99896.00;;;;341399;28;90062;-92
2022/12/26 00:33:26;;;;;;;;;;;9.00;99.90;9.50;99900.00;;;;340775;28;82273;-92
2022/12/26 00:33:38;;;;;;;;;;;9.10;99.90;9.50;99887.00;;;;339150;28;89519;-93
2022/12/26 00:33:50;;;;;;;;;;;9.00;99.90;9.50;99900.00;;;;340975;28;82413;-92
2022/12/26 00:34:02;;;;;;;;;;;9.00;99.90;9.50;99900.00;;;;341113;28;88159;-92
2022/12/26 00:34:14;;;;;;;;;;;9.00;99.90;9.40;99902.00;;;;342343;28;83429;-92
2022/12/26 00:34:26;;;;;;;;;;;9.00;99.90;9.40;99903.00;;;;340382;28;90430;-92
2022/12/26 00:34:38;;;;;;;;;;;9.00;99.90;9.50;99901.00;;;;340715;28;83571;-92
2022/12/26 00:34:49;;;;;;;;;;;9.00;99.90;9.50;99889.00;;;;340029;28;90845;-92
2022/12/26 00:35:01;;;;;;;;;;;9.00;99.90;9.50;99895.00;;;;341056;28;82365;-92
2022/12/26 00:35:13;;;;;;;;;;;9.00;99.90;9.50;99904.00;;;;341336;28;87214;-93
2022/12/26 00:35:25;;;;;;;;;;;9.00;99.90;9.40;99899.00;;;;340991;28;82522;-93
2022/12/26 00:35:37;;;;;;;;;;;9.00;99.90;9.40;99897.00;;;;340376;28;88687;-92
2022/12/26 00:35:49;;;;;;;;;;;9.00;99.90;9.30;99897.00;;;;343707;28;82448;-93
2022/12/26 00:36:06;;;;;;;;;;;9.00;99.90;9.30;99897.00;;;;343080;28;89592;-93
2022/12/26 00:36:22;;;;;;;;;;;9.00;99.90;9.30;99901.00;;;;340907;28;83314;-93
2022/12/26 00:36:34;;;;;;;;;;;9.00;99.90;9.20;99897.00;;;;341667;28;91889;-92
2022/12/26 00:36:46;;;;;;;;;;;9.00;99.90;9.30;99897.00;;;;340730;28;82456;-92
2022/12/26 00:36:58;;;;;;;;;;;9.00;99.90;9.30;99896.00;;;;340288;28;90803;-92
2022/12/26 00:37:10;;;;;;;;;;;9.00;99.90;9.40;99904.00;;;;340739;28;83161;-92
2022/12/26 00:37:22;;;;;;;;;;;9.00;99.90;9.40;99904.00;;;;343122;28;88747;-92
2022/12/26 00:37:33;;;;;;;;;;;9.00;99.90;9.30;99903.00;;;;343051;28;83308;-92
2022/12/26 00:37:45;;;;;;;;;;;9.00;99.90;9.30;99896.00;;;;344573;28;90219;-93
2022/12/26 00:37:57;;;;;;;;;;;9.00;99.90;9.20;99907.00;;;;340871;28;82506;-92
2022/12/26 00:38:09;;;;;;;;;;;9.00;99.90;9.20;99903.00;;;;339128;28;88024;-92
2022/12/26 00:38:21;;;;;;;;;;;8.90;99.90;9.20;99912.00;;;;340843;28;83429;-93
2022/12/26 00:38:34;;;;;;;;;;;8.90;99.90;9.20;99909.00;;;;340270;28;88707;-93
2022/12/26 00:38:46;;;;;;;;;;;8.90;99.90;9.20;99902.00;;;;342032;28;83542;-93
2022/12/26 00:38:59;;;;;;;;;;;8.90;99.90;9.30;99903.00;;;;340372;28;88637;-92
2022/12/26 00:39:11;;;;;;;;;;;8.90;99.90;9.40;99915.00;;;;341775;28;83508;-92
2022/12/26 00:39:24;;;;;;;;;;;8.90;99.90;9.40;99907.00;;;;342562;28;89426;-93
2022/12/26 00:39:36;;;;;;;;;;;8.90;99.90;9.30;99915.00;;;;340697;28;82667;-92
2022/12/26 00:39:47;;;;;;;;;;;8.90;99.90;9.30;99915.00;;;;340348;28;89164;-92
2022/12/26 00:39:59;;;;;;;;;;;8.90;99.90;9.30;99911.00;;;;340409;28;83283;-93
2022/12/26 00:40:11;;;;;;;;;;;8.90;99.90;9.20;99908.00;;;;341764;28;89248;-92
2022/12/26 00:40:23;;;;;;;;;;;8.90;99.90;9.20;99918.00;;;;342394;28;82290;-93
2022/12/26 00:40:35;;;;;;;;;;;8.90;99.90;9.20;99919.00;;;;341562;28;91482;-92
2022/12/26 00:40:46;;;;;;;;;;;8.90;99.90;9.30;99913.00;;;;340944;28;83450;-92
2022/12/26 00:40:58;;;;;;;;;;;8.90;99.90;9.30;99900.00;;;;341857;28;89657;-94
2022/12/26 00:41:11;;;;;;;;;;;8.90;99.90;9.30;99917.00;;;;340775;28;82570;-93
2022/12/26 00:41:23;;;;;;;;;;;8.90;99.90;9.30;99907.00;;;;340501;28;88882;-92
2022/12/26 00:41:35;;;;;;;;;;;8.90;99.90;9.30;99905.00;;;;342239;28;83305;-93
2022/12/26 00:41:47;;;;;;;;;;;8.90;99.90;9.20;99911.00;;;;343283;28;88249;-92
2022/12/26 00:41:58;;;;;;;;;;;8.90;99.90;9.30;99911.00;;;;343307;28;82436;-89
2022/12/26 00:42:10;;;;;;;;;;;8.90;99.90;9.20;99905.00;;;;340073;28;92030;-93
2022/12/26 00:42:22;;;;;;;;;;;8.90;99.90;9.30;99909.00;;;;343737;28;83499;-94
2022/12/26 00:42:34;;;;;;;;;;;8.90;99.90;9.30;99921.00;;;;341705;28;91536;-93
2022/12/26 00:42:46;;;;;;;;;;;8.90;99.90;9.30;99909.00;;;;340626;28;82597;-91
2022/12/26 00:42:57;;;;;;;;;;;8.90;99.90;9.30;99905.00;;;;341693;28;89266;-92
2022/12/26 00:43:09;;;;;;;;;;;8.90;99.90;9.30;99912.00;;;;343262;28;82608;-93
2022/12/26 00:43:21;;;;;;;;;;;8.90;99.90;9.30;99906.00;;;;341743;28;88991;-93
2022/12/26 00:43:33;;;;;;;;;;;8.90;99.90;9.30;99910.00;;;;340443;28;83395;-93
2022/12/26 00:43:45;;;;;;;;;;;8.90;99.90;9.40;99908.00;;;;340320;28;89780;-93
2022/12/26 00:43:57;;;;;;;;;;;8.90;99.90;9.40;99917.00;;;;339198;28;82501;-92
2022/12/26 00:44:09;;;;;;;;;;;8.90;99.90;9.40;99916.00;;;;340139;28;91806;-92
2022/12/26 00:44:21;;;;;;;;;;;8.90;99.90;9.30;99917.00;;;;343119;28;83395;-93
2022/12/26 00:44:33;;;;;;;;;;;8.90;99.90;9.30;99917.00;;;;342981;28;90073;-93
2022/12/26 00:44:44;;;;;;;;;;;8.90;99.90;9.20;99909.00;;;;341863;28;82559;-93
2022/12/26 00:44:56;;;;;;;;;;;8.90;99.90;9.20;99908.00;;;;340171;28;90115;-92
2022/12/26 00:45:08;;;;;;;;;;;8.90;99.90;9.20;99906.00;;;;339396;28;83570;-92
2022/12/26 00:45:23;;;;;;;;;;;8.80;99.90;9.40;99911.00;;;;341582;28;88389;-94
2022/12/26 00:45:35;;;;;;;;;;;8.90;99.90;9.30;99915.00;;;;342027;28;83563;-92
2022/12/26 00:45:47;;;;;;;;;;;8.90;99.90;9.40;99911.00;;;;340145;28;90468;-93
2022/12/26 00:45:59;;;;;;;;;;;8.80;99.90;9.30;99914.00;;;;340375;28;82581;-93
2022/12/26 00:46:11;;;;;;;;;;;8.90;99.90;9.30;99918.00;;;;340181;28;89645;-93
2022/12/26 00:46:23;;;;;;;;;;;8.90;99.90;9.20;99908.00;;;;340757;28;83426;-93
2022/12/26 00:46:35;;;;;;;;;;;8.90;99.90;9.20;99914.00;;;;341337;28;91344;-93
2022/12/26 00:46:47;;;;;;;;;;;8.90;99.90;9.10;99908.00;;;;343258;28;83287;-93
2022/12/26 00:46:58;;;;;;;;;;;8.90;99.90;9.10;99914.00;;;;343146;28;87931;-93
2022/12/26 00:47:10;;;;;;;;;;;8.80;99.90;9.20;99911.00;;;;341781;28;82596;-91
2022/12/26 00:47:22;;;;;;;;;;;8.80;99.90;9.20;99911.00;;;;342949;28;87335;-92
2022/12/26 00:47:34;;;;;;;;;;;8.80;99.90;9.20;99903.00;;;;342146;28;82374;-93
2022/12/26 00:47:46;;;;;;;;;;;8.80;99.90;9.30;99912.00;;;;341452;28;90488;-92
2022/12/26 00:47:58;;;;;;;;;;;8.90;99.90;9.30;99913.00;;;;341868;28;82492;-93
2022/12/26 00:48:09;;;;;;;;;;;8.90;99.90;9.30;99911.00;;;;341627;28;90526;-92
2022/12/26 00:48:21;;;;;;;;;;;8.80;99.90;9.30;99911.00;;;;342091;28;82335;-92
2022/12/26 00:48:33;;;;;;;;;;;8.80;99.90;9.20;99911.00;;;;340164;28;90832;-92
2022/12/26 00:48:45;;;;;;;;;;;8.90;99.90;9.20;99915.00;;;;340640;28;82610;-92
2022/12/26 00:48:57;;;;;;;;;;;8.80;99.90;9.10;99917.00;;;;340191;28;89114;-92
2022/12/26 00:49:09;;;;;;;;;;;8.80;99.90;9.10;99914.00;;;;341909;28;83567;-92
2022/12/26 00:49:20;;;;;;;;;;;8.80;99.90;9.10;99908.00;;;;341341;28;91934;-92
2022/12/26 00:49:32;;;;;;;;;;;8.80;99.90;9.10;99917.00;;;;340478;28;82552;-92
2022/12/26 00:50:04;;;;;;;;;;;8.80;99.90;9.30;99911.00;;;;340037;28;89077;-92
2022/12/26 00:50:26;;;;;;;;;;;8.80;99.90;9.40;99914.00;;;;339495;28;83310;-92
2022/12/26 00:50:45;;;;;;;;;;;8.90;99.90;9.40;99916.00;;;;341374;28;89311;-92
2022/12/26 00:50:57;;;;;;;;;;;8.80;99.90;9.40;99924.00;;;;342010;28;82338;-92
2022/12/26 00:51:09;;;;;;;;;;;8.80;99.90;9.30;99908.00;;;;342454;28;90131;-93
2022/12/26 00:51:21;;;;;;;;;;;8.80;99.90;9.30;99916.00;;;;340186;28;83604;-93
2022/12/26 00:51:32;;;;;;;;;;;8.80;99.90;9.20;99912.00;;;;339679;28;90785;-93
2022/12/26 00:51:44;;;;;;;;;;;8.90;99.90;9.20;99912.00;;;;342043;28;83383;-91
2022/12/26 00:51:56;;;;;;;;;;;8.80;99.90;9.20;99916.00;;;;340184;28;90478;-92
2022/12/26 00:52:08;;;;;;;;;;;8.80;99.90;9.30;99918.00;;;;340549;28;83497;-92
2022/12/26 00:52:20;;;;;;;;;;;8.80;99.90;9.40;99919.00;;;;338864;28;90911;-92
2022/12/26 00:52:32;;;;;;;;;;;8.80;99.90;9.40;99916.00;;;;341758;28;83646;-92
2022/12/26 00:52:43;;;;;;;;;;;8.80;99.90;9.40;99921.00;;;;338561;28;91406;-93
2022/12/26 00:52:55;;;;;;;;;;;8.80;99.90;9.30;99917.00;;;;340858;28;83194;-93
2022/12/26 00:53:07;;;;;;;;;;;8.80;99.90;9.30;99916.00;;;;340476;28;88876;-92
2022/12/26 00:53:19;;;;;;;;;;;8.80;99.90;9.20;99910.00;;;;339031;28;83537;-92
2022/12/26 00:53:31;;;;;;;;;;;8.80;99.90;9.20;99909.00;;;;339932;28;89297;-92
2022/12/26 00:53:43;;;;;;;;;;;8.80;99.90;9.20;99914.00;;;;339397;28;83295;-92
2022/12/26 00:53:55;;;;;;;;;;;8.80;99.90;9.10;99910.00;;;;338707;28;89210;-90
2022/12/26 00:54:07;;;;;;;;;;;8.80;99.90;9.10;99916.00;;;;339303;28;82672;-92
2022/12/26 00:54:18;;;;;;;;;;;8.80;99.90;9.10;99908.00;;;;340084;28;89291;-92
2022/12/26 00:54:30;;;;;;;;;;;8.80;99.90;9.20;99912.00;;;;338204;28;83407;-93
2022/12/26 00:54:42;;;;;;;;;;;8.80;99.90;9.20;99906.00;;;;337551;28;88278;-92
2022/12/26 00:54:54;;;;;;;;;;;8.80;99.90;9.20;99913.00;;;;339464;28;82340;-92
2022/12/26 00:55:06;;;;;;;;;;;8.80;99.90;9.20;99906.00;;;;338865;28;88834;-93
2022/12/26 00:55:18;;;;;;;;;;;8.80;99.90;9.20;99914.00;;;;339301;28;82295;-93
2022/12/26 00:55:30;;;;;;;;;;;8.80;99.90;9.20;99916.00;;;;339001;28;88351;-93
2022/12/26 00:55:42;;;;;;;;;;;8.80;99.90;9.10;99912.00;;;;337907;28;83487;-93
2022/12/26 00:55:53;;;;;;;;;;;8.80;99.90;9.10;99908.00;;;;339087;28;87985;-92
2022/12/26 00:56:06;;;;;;;;;;;8.80;99.90;9.10;99901.00;;;;339417;28;83414;-92
2022/12/26 00:56:19;;;;;;;;;;;8.80;99.90;9.10;99909.00;;;;339870;28;88471;-91
2022/12/26 00:56:31;;;;;;;;;;;8.80;99.90;9.20;99915.00;;;;339388;28;82467;-91
2022/12/26 00:56:43;;;;;;;;;;;8.80;99.90;9.10;99916.00;;;;340141;28;88274;-92
2022/12/26 00:56:54;;;;;;;;;;;8.70;99.90;9.20;99910.00;;;;339274;28;82573;-93
2022/12/26 00:57:06;;;;;;;;;;;8.80;99.90;9.10;99909.00;;;;337567;28;88369;-92
2022/12/26 00:57:18;;;;;;;;;;;8.80;99.90;9.20;99907.00;;;;337908;28;83398;-93
2022/12/26 00:57:29;;;;;;;;;;;8.80;99.90;9.20;99907.00;;;;340216;28;91281;-92
2022/12/26 00:57:41;;;;;;;;;;;8.80;99.90;9.30;99909.00;;;;340315;28;82598;-92
2022/12/26 00:57:53;;;;;;;;;;;8.80;99.90;9.30;99907.00;;;;336185;28;88945;-92
2022/12/26 00:58:05;;;;;;;;;;;8.80;99.90;9.20;99908.00;;;;338855;28;83631;-92
2022/12/26 00:58:18;;;;;;;;;;;8.80;99.90;9.20;99909.00;;;;338967;28;87782;-92
2022/12/26 00:58:29;;;;;;;;;;;8.80;99.90;9.20;99901.00;;;;339114;28;83515;-93
2022/12/26 00:58:41;;;;;;;;;;;8.80;99.90;9.20;99911.00;;;;338926;28;87921;-92
2022/12/26 00:58:53;;;;;;;;;;;8.80;99.90;9.20;99914.00;;;;338034;28;83164;-92
2022/12/26 00:59:05;;;;;;;;;;;8.80;99.90;9.20;99914.00;;;;337634;28;89161;-92
2022/12/26 00:59:17;;;;;;;;;;;8.80;99.90;9.20;99902.00;;;;339439;28;83219;-92
2022/12/26 00:59:29;;;;;;;;;;;8.80;99.90;9.30;99902.00;;;;340166;28;88015;-94
2022/12/26 00:59:41;;;;;;;;;;;8.80;99.90;9.20;99901.00;;;;339463;28;83071;-93
2022/12/26 00:59:53;;;;;;;;;;;8.80;99.90;9.20;99910.00;;;;341238;28;88530;-93
2022/12/26 01:00:05;;;;;;;;;;;8.80;99.90;9.20;99907.00;;;;340512;28;83424;-92
2022/12/26 01:00:17;;;;;;;;;;;8.80;99.90;9.20;99904.00;;;;338919;28;89407;-93
2022/12/26 01:00:29;;;;;;;;;;;8.80;99.90;9.20;99911.00;;;;339323;28;83260;-93
2022/12/26 01:00:41;;;;;;;;;;;8.80;99.90;9.20;99914.00;;;;341617;28;89658;-92
2022/12/26 01:00:53;;;;;;;;;;;8.80;99.90;9.20;99907.00;;;;340319;28;82628;-92
2022/12/26 01:01:13;;;;;;;;;;;8.80;99.90;9.20;99909.00;;;;338516;28;88159;-92
2022/12/26 01:01:29;;;;;;;;;;;8.80;99.90;9.20;99902.00;;;;339100;28;83585;-92
2022/12/26 01:01:41;;;;;;;;;;;8.80;99.90;9.30;99902.00;;;;338632;28;91940;-93
2022/12/26 01:01:54;;;;;;;;;;;8.80;99.90;9.30;99911.00;;;;339378;28;82608;-92
2022/12/26 01:02:36;;;;;;;;;;;8.80;99.90;9.30;99903.00;;;;340074;28;88697;-92
2022/12/26 01:02:38;;;;;;;;;;;8.80;99.90;9.40;99907.00;;;;339112;28;83458;-91
2022/12/26 01:02:50;;;;;;;;;;;8.80;99.90;9.40;99911.00;;;;340282;28;87241;-92
2022/12/26 01:03:02;;;;;;;;;;;8.80;99.90;9.30;99904.00;;;;339200;28;82584;-93
2022/12/26 01:03:14;;;;;;;;;;;8.80;99.90;9.20;99904.00;;;;336412;28;87597;-93
2022/12/26 01:03:26;;;;;;;;;;;8.80;99.90;9.20;99906.00;;;;337867;28;82385;-93
2022/12/26 01:03:38;;;;;;;;;;;8.80;99.90;9.10;99897.00;;;;338606;28;91745;-92
2022/12/26 01:03:50;;;;;;;;;;;8.80;99.90;9.10;99898.00;;;;337829;28;83484;-92
2022/12/26 01:04:03;;;;;;;;;;;8.80;99.90;9.10;99898.00;;;;337675;28;87165;-92
2022/12/26 01:04:15;;;;;;;;;;;8.80;99.90;9.10;99901.00;;;;339170;28;82633;-92